Time;durP1;ratioP1;P1;durP2;ratioP2;P2;SDS_P1;SDS_P2;PMS_P1;PMS_P2;Temp;Humidity;BMP_temperature;BMP_pressure;BME280_temperature;BME280_humidity;BME280_pressure;Samples;Min_cycle;Max_cycle;Signal;HPM_P1;HPM_P2
2022/08/18 00:00:43;;;;;;;10.00;5.55;;;;;;;19.92;100.00;97118.59;5043775;28;20079;-80
2022/08/18 00:03:10;;;;;;;11.20;5.93;;;;;;;19.92;100.00;97122.16;5016379;28;20066;-80
2022/08/18 00:05:36;;;;;;;7.18;5.60;;;;;;;19.93;100.00;97125.72;5012614;28;20049;-79
2022/08/18 00:08:02;;;;;;;9.55;5.47;;;;;;;19.97;100.00;97127.94;5019773;28;20033;-79
2022/08/18 00:10:28;;;;;;;12.75;5.70;;;;;;;19.99;100.00;97131.31;5046453;28;20052;-80
2022/08/18 00:12:53;;;;;;;8.43;5.63;;;;;;;19.95;100.00;97143.53;5043351;28;20400;-80
2022/08/18 00:15:20;;;;;;;9.60;5.82;;;;;;;20.02;100.00;97143.75;5013703;28;20064;-80
2022/08/18 00:17:53;;;;;;;7.68;5.85;;;;;;;20.03;100.00;97154.44;5043675;28;20021;-79
2022/08/18 00:20:26;;;;;;;9.55;6.30;;;;;;;19.98;100.00;97118.78;5035466;28;20108;-80
2022/08/18 00:22:55;;;;;;;8.80;6.03;;;;;;;19.95;100.00;97150.84;5013760;28;20030;-79
2022/08/18 00:25:21;;;;;;;11.65;6.65;;;;;;;19.87;100.00;97148.09;5037268;28;20109;-80
2022/08/18 00:27:47;;;;;;;13.27;6.28;;;;;;;19.83;100.00;97169.28;5039769;28;20093;-80
2022/08/18 00:30:15;;;;;;;10.27;5.70;;;;;;;19.77;100.00;97159.06;5045017;28;20033;-79
2022/08/18 00:32:46;;;;;;;8.98;6.13;;;;;;;19.76;100.00;97151.94;5023363;28;20040;-80
2022/08/18 00:35:20;;;;;;;10.25;6.32;;;;;;;19.70;100.00;97146.28;5033756;28;20044;-79
2022/08/18 00:37:47;;;;;;;9.15;5.88;;;;;;;19.58;100.00;97148.44;5014186;28;20029;-78
2022/08/18 00:40:16;;;;;;;9.02;5.93;;;;;;;19.63;100.00;97151.50;5020728;28;20029;-80
2022/08/18 00:42:46;;;;;;;12.55;5.95;;;;;;;19.56;100.00;97163.19;5031750;28;20143;-78
2022/08/18 00:45:22;;;;;;;12.27;6.57;;;;;;;19.50;100.00;97117.69;5037665;28;20021;-78
2022/08/18 00:47:48;;;;;;;9.88;5.70;;;;;;;19.49;100.00;97135.84;5018212;28;20041;-79
2022/08/18 00:50:21;;;;;;;11.45;6.45;;;;;;;19.45;100.00;97148.00;5021851;28;20032;-80
2022/08/18 00:52:51;;;;;;;;;;;;;;;19.51;100.00;97158.22;5020643;28;20030;-80
2022/08/18 00:55:18;;;;;;;9.70;5.85;;;;;;;19.49;100.00;97111.41;5052886;27;19920;-80
2022/08/18 00:57:45;;;;;;;10.10;6.20;;;;;;;19.44;100.00;97149.03;5017263;28;20531;-79
2022/08/18 01:00:11;;;;;;;9.38;6.13;;;;;;;19.35;100.00;97117.38;5032105;28;20117;-79
2022/08/18 01:02:44;;;;;;;10.07;6.07;;;;;;;19.33;100.00;97135.69;5040837;28;20128;-80
2022/08/18 01:05:19;;;;;;;8.43;6.05;;;;;;;19.23;100.00;97148.47;5037587;28;20013;-80
2022/08/18 01:07:46;;;;;;;11.10;5.90;;;;;;;19.17;100.00;97149.97;5048442;28;20028;-79
2022/08/18 01:10:16;;;;;;;11.68;6.05;;;;;;;19.19;100.00;97150.69;5025195;28;20035;-79
2022/08/18 01:12:43;;;;;;;9.25;7.00;;;;;;;19.21;100.00;97151.38;5039053;28;20079;-79
2022/08/18 01:15:10;;;;;;;12.65;7.47;;;;;;;19.21;100.00;97158.66;5042012;28;20059;-79
2022/08/18 01:23:15;;;;;;;8.25;5.55;;;;;;;19.14;100.00;97161.13;5033710;28;20032;-80
2022/08/18 01:25:59;;;;;;;8.30;5.95;;;;;;;19.14;100.00;97146.72;5011695;28;20025;-79
2022/08/18 01:28:31;;;;;;;12.43;6.25;;;;;;;19.14;100.00;97181.97;5026358;28;20041;-79
2022/08/18 01:30:58;;;;;;;10.10;6.30;;;;;;;18.94;100.00;97160.50;5028125;28;20025;-78
2022/08/18 01:33:35;;;;;;;10.07;6.35;;;;;;;18.94;100.00;97157.78;5027780;28;20025;-80
2022/08/18 01:36:18;;;;;;;12.20;6.90;;;;;;;18.91;100.00;97158.09;5035489;28;20484;-79
2022/08/18 01:38:46;;;;;;;10.70;5.85;;;;;;;18.87;100.00;97163.97;5031175;28;20108;-80
2022/08/18 01:41:12;;;;;;;9.30;6.50;;;;;;;18.92;100.00;97184.16;5020039;28;20037;-79
2022/08/18 01:43:38;;;;;;;7.95;6.00;;;;;;;18.99;100.00;97161.84;5038664;28;20100;-80
2022/08/18 01:46:05;;;;;;;10.45;6.82;;;;;;;18.84;100.00;97169.69;5021346;28;20029;-80
2022/08/18 01:48:34;;;;;;;11.45;6.20;;;;;;;18.85;100.00;97174.13;5039152;28;20108;-80
2022/08/18 01:51:01;;;;;;;9.25;6.50;;;;;;;18.85;100.00;97166.00;5041337;28;20039;-79
2022/08/18 01:53:27;;;;;;;10.18;6.68;;;;;;;18.80;100.00;97144.75;5019318;27;20059;-79
2022/08/18 01:55:54;;;;;;;9.48;6.05;;;;;;;18.79;100.00;97156.63;5011332;28;20492;-80
2022/08/18 01:58:26;;;;;;;11.60;6.82;;;;;;;18.88;100.00;97160.25;5028197;28;20033;-79
2022/08/18 02:00:57;;;;;;;9.38;6.28;;;;;;;18.85;100.00;97161.41;5023654;28;20555;-79
2022/08/18 02:03:25;;;;;;;10.30;6.95;;;;;;;18.85;100.00;97153.28;5038902;28;20033;-80
2022/08/18 02:05:56;;;;;;;11.38;6.63;;;;;;;18.81;100.00;97145.59;5026208;28;20584;-79
2022/08/18 02:08:21;;;;;;;10.27;6.38;;;;;;;18.80;100.00;97158.31;5027362;28;20057;-79
2022/08/18 02:10:47;;;;;;;10.35;6.43;;;;;;;18.77;100.00;97163.19;5039639;28;20052;-79
2022/08/18 02:13:12;;;;;;;9.68;6.38;;;;;;;18.81;100.00;97165.44;5039197;28;20092;-80
2022/08/18 02:15:38;;;;;;;7.03;5.65;;;;;;;18.77;100.00;97158.63;5031756;28;20040;-80
2022/08/18 02:18:04;;;;;;;9.50;6.60;;;;;;;18.74;100.00;97152.66;5016581;28;20553;-80
2022/08/18 02:20:29;;;;;;;9.70;6.28;;;;;;;18.64;100.00;97147.31;5027089;28;20457;-80
2022/08/18 02:22:57;;;;;;;8.05;6.28;;;;;;;18.58;100.00;97137.09;5035495;28;20082;-79
2022/08/18 02:25:23;;;;;;;10.55;6.43;;;;;;;18.59;100.00;97168.59;5027513;28;20030;-79
2022/08/18 02:27:49;;;;;;;9.45;6.50;;;;;;;18.65;100.00;97162.56;5047214;28;20373;-80
2022/08/18 02:30:18;;;;;;;8.85;6.32;;;;;;;18.69;100.00;97155.84;5030562;28;20025;-80
2022/08/18 02:32:43;;;;;;;10.82;6.57;;;;;;;18.54;100.00;97159.25;5027560;28;20484;-80
2022/08/18 02:35:27;;;;;;;10.75;6.72;;;;;;;18.41;100.00;97175.81;5033569;28;20021;-80
2022/08/18 02:37:53;;;;;;;9.77;6.93;;;;;;;18.36;100.00;97159.19;5023723;28;20037;-79
2022/08/18 02:40:19;;;;;;;14.45;7.03;;;;;;;18.38;100.00;97163.44;5040730;28;20453;-80
2022/08/18 02:42:45;;;;;;;9.52;6.53;;;;;;;18.40;100.00;97187.66;5018347;28;20037;-79
2022/08/18 02:45:12;;;;;;;9.70;6.85;;;;;;;18.42;100.00;97172.97;5018717;28;20025;-79
2022/08/18 02:47:38;;;;;;;9.63;6.20;;;;;;;18.41;100.00;97186.66;5035172;28;20032;-79
2022/08/18 02:50:05;;;;;;;9.02;6.65;;;;;;;18.28;100.00;97172.63;5015840;28;20020;-79
2022/08/18 02:52:34;;;;;;;11.68;6.82;;;;;;;18.30;100.00;97178.75;5045983;28;20171;-79
2022/08/18 02:55:00;;;;;;;11.55;6.28;;;;;;;18.28;100.00;97184.31;5035214;28;20100;-80
2022/08/18 02:57:27;;;;;;;9.52;6.70;;;;;;;18.24;100.00;97176.66;5027941;28;20033;-81
2022/08/18 02:59:53;;;;;;;15.10;6.97;;;;;;;18.27;100.00;97168.22;5026544;28;20029;-80
2022/08/18 03:02:19;;;;;;;11.75;8.15;;;;;;;18.19;100.00;97168.13;5016971;28;20029;-80
2022/08/18 03:04:45;;;;;;;14.70;7.47;;;;;;;18.15;100.00;97172.97;5029941;28;20476;-82
2022/08/18 03:07:13;;;;;;;10.20;7.53;;;;;;;18.19;100.00;97171.69;5030215;28;20145;-81
2022/08/18 03:09:40;;;;;;;11.75;7.82;;;;;;;18.13;100.00;97196.66;5012837;28;20041;-81
2022/08/18 03:12:07;;;;;;;12.23;7.15;;;;;;;18.14;100.00;97165.03;5018153;28;20370;-80
2022/08/18 03:14:34;;;;;;;10.63;7.25;;;;;;;18.09;100.00;97151.09;5012960;28;20037;-80
2022/08/18 03:17:02;;;;;;;11.95;7.90;;;;;;;18.04;100.00;97150.69;5033481;28;20033;-81
2022/08/18 03:19:29;;;;;;;11.65;7.40;;;;;;;17.95;100.00;97130.78;5003292;28;20066;-80
2022/08/18 03:21:57;;;;;;;13.88;8.02;;;;;;;18.05;100.00;97165.94;5045601;28;20106;-80
2022/08/18 03:24:24;;;;;;;13.60;7.95;;;;;;;18.04;100.00;97175.91;5049905;28;20471;-80
2022/08/18 03:26:51;;;;;;;14.25;8.30;;;;;;;18.05;100.00;97179.47;5022675;28;20098;-80
2022/08/18 03:29:16;;;;;;;13.20;7.95;;;;;;;17.97;100.00;97163.97;5019246;28;20472;-80
2022/08/18 03:31:44;;;;;;;11.55;7.75;;;;;;;18.04;100.00;97180.47;5050279;27;20124;-80
2022/08/18 03:34:10;;;;;;;14.40;8.13;;;;;;;17.95;100.00;97189.47;5032689;28;20033;-81
2022/08/18 03:36:36;;;;;;;21.23;8.10;;;;;;;17.86;100.00;97189.38;5026409;28;20060;-80
2022/08/18 03:39:07;;;;;;;11.23;7.57;;;;;;;17.85;100.00;97194.94;5017934;28;20037;-80
2022/08/18 03:41:34;;;;;;;16.42;7.60;;;;;;;17.88;100.00;97200.03;5032255;28;20052;-80
2022/08/18 03:44:01;;;;;;;12.75;7.93;;;;;;;17.84;100.00;97199.47;5032181;28;20025;-80
2022/08/18 03:46:27;;;;;;;12.30;7.60;;;;;;;17.79;100.00;97204.50;5037666;28;20021;-79
2022/08/18 03:48:57;;;;;;;18.17;7.63;;;;;;;17.79;100.00;97207.19;5030035;28;20477;-80
2022/08/18 03:51:25;;;;;;;16.52;7.93;;;;;;;17.85;100.00;97179.53;5025840;28;20400;-80
2022/08/18 03:53:57;;;;;;;12.35;7.40;;;;;;;17.85;100.00;97198.50;5040191;28;20074;-77
2022/08/18 03:56:24;;;;;;;;;;;;;;;17.87;100.00;97191.06;5042668;28;20544;-79
2022/08/18 03:58:55;;;;;;;17.95;9.10;;;;;;;17.93;100.00;97208.59;5054892;28;19913;-79
2022/08/18 04:01:29;;;;;;;22.55;8.73;;;;;;;17.98;100.00;97202.72;5026119;28;20029;-80
2022/08/18 04:03:57;;;;;;;13.77;7.90;;;;;;;18.08;100.00;97231.47;5016072;28;20041;-78
2022/08/18 04:06:25;;;;;;;16.65;8.00;;;;;;;18.09;100.00;97211.47;5022826;28;20054;-80
2022/08/18 04:08:53;;;;;;;14.32;8.05;;;;;;;18.12;100.00;97191.41;5015048;28;20080;-80
2022/08/18 04:11:19;;;;;;;14.93;8.30;;;;;;;18.53;100.00;97214.41;5038252;28;20649;-80
2022/08/18 04:13:45;;;;;;;15.85;8.60;;;;;;;18.92;100.00;97177.88;5043597;28;20039;-80
2022/08/18 04:16:12;;;;;;;15.90;8.00;;;;;;;19.10;100.00;97211.28;5029675;28;20029;-80
2022/08/18 04:18:38;;;;;;;16.02;8.02;;;;;;;18.91;100.00;97171.66;5048566;28;20032;-80
2022/08/18 04:21:08;;;;;;;17.25;7.45;;;;;;;18.82;100.00;97172.56;5014970;28;20166;-80
2022/08/18 04:23:53;;;;;;;14.68;8.18;;;;;;;18.77;100.00;97191.13;5034791;28;20089;-80
2022/08/18 04:26:19;;;;;;;11.55;7.53;;;;;;;18.81;100.00;97197.97;5023532;28;20017;-80
2022/08/18 04:28:44;;;;;;;10.73;7.57;;;;;;;18.83;100.00;97211.34;5021408;28;20041;-81
2022/08/18 04:31:13;;;;;;;12.20;7.97;;;;;;;18.79;100.00;97210.81;5023428;28;20033;-79
2022/08/18 04:33:40;;;;;;;14.30;8.05;;;;;;;18.88;100.00;97228.88;5045725;28;20115;-79
2022/08/18 04:36:11;;;;;;;14.45;8.50;;;;;;;18.88;100.00;97218.03;5015004;28;20104;-81
2022/08/18 04:38:38;;;;;;;20.27;9.53;;;;;;;18.98;100.00;97211.69;5017694;28;20035;-81
2022/08/18 04:41:05;;;;;;;17.30;9.68;;;;;;;19.05;100.00;97202.75;5040295;28;20340;-80
2022/08/18 04:43:31;;;;;;;20.85;9.50;;;;;;;19.08;100.00;97215.13;5015381;28;20053;-81
2022/08/18 04:46:06;;;;;;;15.38;8.93;;;;;;;19.13;100.00;97218.25;5028489;28;20400;-82
2022/08/18 04:48:37;;;;;;;20.45;9.63;;;;;;;19.25;100.00;97209.72;5035034;28;20033;-81
2022/08/18 04:51:14;;;;;;;13.35;8.50;;;;;;;19.34;100.00;97216.06;5032683;28;20029;-81
2022/08/18 04:53:43;;;;;;;15.32;9.40;;;;;;;19.50;100.00;97212.66;5025092;28;20453;-82
2022/08/18 04:56:25;;;;;;;17.58;9.93;;;;;;;19.67;100.00;97212.59;5019410;28;20028;-78
2022/08/18 04:59:10;;;;;;;24.67;10.38;;;;;;;19.77;100.00;97210.66;5027435;28;20029;-81
2022/08/18 05:01:41;;;;;;;17.88;8.52;;;;;;;19.90;100.00;97224.59;5015793;28;20030;-81
2022/08/18 05:04:08;;;;;;;14.30;8.68;;;;;;;19.99;100.00;97212.78;5023214;28;20030;-80
2022/08/18 05:06:34;;;;;;;17.42;9.75;;;;;;;20.26;100.00;97221.78;5025320;28;20137;-81
2022/08/18 05:09:03;;;;;;;14.05;9.13;;;;;;;20.37;100.00;97224.19;5028577;28;20046;-79
2022/08/18 05:11:33;;;;;;;17.63;9.70;;;;;;;20.46;100.00;97228.66;5028654;28;20480;-81
2022/08/18 05:14:05;;;;;;;17.35;9.65;;;;;;;20.51;100.00;97239.91;5031344;28;20033;-80
2022/08/18 05:16:35;;;;;;;;;;;;;;;20.70;100.00;97200.72;5028689;28;20022;-80
2022/08/18 05:19:06;;;;;;;20.92;10.48;;;;;;;20.70;100.00;97200.72;5038118;28;19913;-80
2022/08/18 05:21:32;;;;;;;15.18;9.68;;;;;;;20.82;100.00;97205.69;5027979;28;20389;-81
2022/08/18 05:23:59;;;;;;;16.40;10.23;;;;;;;20.99;100.00;97220.13;5029432;28;20028;-81
2022/08/18 05:26:26;;;;;;;25.77;10.88;;;;;;;21.08;100.00;97205.53;5036278;28;20032;-80
2022/08/18 05:28:52;;;;;;;18.58;10.45;;;;;;;21.30;100.00;97215.78;5044686;28;20033;-81
2022/08/18 05:31:21;;;;;;;30.65;14.52;;;;;;;21.21;99.20;97218.66;5039858;28;20085;-81
2022/08/18 05:33:47;;;;;;;23.55;11.15;;;;;;;21.43;98.60;97227.03;5036895;28;20484;-81
2022/08/18 05:36:51;;;;;;;23.02;10.60;;;;;;;22.82;90.21;97242.03;5030997;28;20037;-81
2022/08/18 05:39:23;;;;;;;24.00;10.70;;;;;;;25.26;76.92;97200.06;5040052;28;20025;-81
2022/08/18 05:41:52;;;;;;;34.33;11.47;;;;;;;27.44;66.16;97230.63;5031951;28;20033;-81
2022/08/18 05:44:24;;;;;;;21.45;10.45;;;;;;;28.49;60.70;97255.44;5019205;28;20025;-82
2022/08/18 05:46:55;;;;;;;19.42;10.13;;;;;;;29.16;57.58;97208.22;5019981;28;20033;-80
2022/08/18 05:49:21;;;;;;;46.70;10.73;;;;;;;29.98;54.45;97210.03;5033608;28;20500;-80
2022/08/18 05:51:49;;;;;;;25.30;12.73;;;;;;;30.62;52.03;97182.88;5034001;28;20033;-80
2022/08/18 05:57:13;;;;;;;21.35;12.45;;;;;;;33.27;45.50;97201.34;5037960;28;20102;-80
2022/08/18 05:59:40;;;;;;;22.27;10.85;;;;;;;34.44;43.09;97235.72;5040504;28;20032;-81
2022/08/18 06:02:34;;;;;;;26.30;10.00;;;;;;;35.64;40.05;97196.78;5040445;28;20048;-81
2022/08/18 06:05:07;;;;;;;20.27;11.23;;;;;;;35.36;39.87;97171.94;5013859;28;20033;-80
2022/08/18 06:07:52;;;;;;;32.25;14.85;;;;;;;35.87;38.94;97171.38;5045844;28;20049;-81
2022/08/18 06:10:19;;;;;;;13.35;8.95;;;;;;;35.36;38.82;97186.72;5027993;28;20025;-81
2022/08/18 06:12:49;;;;;;;28.75;11.50;;;;;;;35.54;38.86;97204.16;5040724;28;20544;-81
2022/08/18 06:15:24;;;;;;;14.48;9.57;;;;;;;35.24;38.63;97235.25;5039983;28;20071;-81
2022/08/18 06:18:14;;;;;;;13.25;8.95;;;;;;;34.21;40.17;97202.53;5039623;28;20060;-80
2022/08/18 06:21:13;;;;;;;11.30;8.35;;;;;;;34.09;41.05;97210.09;5035840;28;20021;-81
2022/08/18 06:23:57;;;;;;;14.35;8.45;;;;;;;34.56;39.99;97214.22;5031045;28;20076;-81
2022/08/18 06:26:57;;;;;;;22.02;12.63;;;;;;;35.08;38.77;97175.75;5036979;28;20086;-80
2022/08/18 06:29:46;;;;;;;20.27;9.35;;;;;;;35.05;37.78;97172.66;5029217;28;20029;-81
2022/08/18 06:32:56;;;;;;;14.20;9.25;;;;;;;35.78;37.02;97169.34;5029971;28;20476;-80
2022/08/18 06:35:32;;;;;;;16.92;8.00;;;;;;;35.13;38.11;97161.94;5017186;28;20124;-81
2022/08/18 06:40:48;;;;;;;8.93;6.13;;;;;;;37.76;33.57;97170.28;5034865;28;20085;-81
2022/08/18 06:43:15;;;;;;;12.82;8.02;;;;;;;38.32;32.81;97156.34;5025376;28;20058;-81
2022/08/18 06:45:44;;;;;;;8.13;6.28;;;;;;;39.24;31.49;97180.25;5020767;28;20025;-81
2022/08/18 06:48:33;;;;;;;8.55;5.93;;;;;;;39.42;30.92;97193.59;5034383;28;20427;-80
2022/08/18 06:51:01;;;;;;;6.43;5.68;;;;;;;39.02;31.63;97189.81;5021665;28;20049;-80
2022/08/18 06:53:53;;;;;;;9.65;5.63;;;;;;;38.68;32.20;97190.72;5043907;28;20033;-80
2022/08/18 06:56:36;;;;;;;7.45;5.68;;;;;;;38.26;32.50;97118.34;5014604;28;20041;-81
2022/08/18 06:59:22;;;;;;;10.68;5.70;;;;;;;38.69;32.45;97204.44;5031604;28;20039;-81
2022/08/18 07:01:55;;;;;;;12.68;6.80;;;;;;;39.90;31.19;97127.50;5038072;28;20025;-81
2022/08/18 07:04:39;;;;;;;8.52;6.53;;;;;;;41.01;29.84;97144.09;5013651;28;20480;-81
2022/08/18 07:07:29;;;;;;;9.80;6.32;;;;;;;41.68;28.25;97130.03;5021977;28;20533;-81
2022/08/18 07:09:55;;;;;;;10.70;6.38;;;;;;;41.07;28.75;97103.59;5015310;28;20508;-81
2022/08/18 07:12:24;;;;;;;8.13;6.15;;;;;;;39.54;30.94;97154.88;5041005;28;20029;-81
2022/08/18 07:14:56;;;;;;;8.13;6.15;;;;;;;41.21;29.10;97156.22;5031731;28;20079;-81
2022/08/18 07:17:33;;;;;;;13.15;6.93;;;;;;;42.11;28.06;97154.94;5013961;28;20150;-81
2022/08/18 07:20:16;;;;;;;12.50;6.55;;;;;;;41.18;29.06;97126.75;5026317;28;20108;-81
2022/08/18 07:23:39;;;;;;;12.30;6.45;;;;;;;41.99;27.94;97146.16;5040739;28;20033;-80
2022/08/18 07:26:07;;;;;;;9.45;6.45;;;;;;;42.27;27.76;97126.56;5042998;28;20408;-81
2022/08/18 07:28:36;;;;;;;13.63;6.72;;;;;;;41.12;28.82;97133.59;5050305;28;20013;-81
2022/08/18 07:31:34;;;;;;;7.90;5.97;;;;;;;41.58;28.59;97142.25;5051167;28;20503;-81
2022/08/18 07:34:07;;;;;;;16.35;7.38;;;;;;;40.28;29.96;97128.56;5030170;28;20029;-81
2022/08/18 07:36:46;;;;;;;14.52;6.45;;;;;;;40.79;28.93;97135.38;5031126;28;20074;-81
2022/08/18 07:39:40;;;;;;;9.25;6.00;;;;;;;41.66;28.36;97133.13;5014164;28;20036;-81
2022/08/18 07:42:35;;;;;;;7.03;5.53;;;;;;;43.24;25.69;97132.03;5025805;28;20116;-81
2022/08/18 07:45:16;;;;;;;7.65;4.97;;;;;;;43.66;25.74;97104.28;5042439;28;20037;-81
2022/08/18 07:47:49;;;;;;;7.30;4.43;;;;;;;44.56;24.07;97106.03;5038651;28;20074;-80
2022/08/18 07:50:15;;;;;;;4.85;3.92;;;;;;;44.88;23.64;97104.00;5031959;28;20043;-82
2022/08/18 07:52:50;;;;;;;4.57;3.92;;;;;;;45.44;22.23;97097.56;5025648;28;20112;-82
2022/08/18 07:55:23;;;;;;;5.70;3.70;;;;;;;45.77;22.27;97093.97;5043826;27;20029;-82
2022/08/18 07:58:10;;;;;;;5.28;4.22;;;;;;;44.70;22.61;97097.47;5031490;28;20025;-81
2022/08/18 08:00:35;;;;;;;5.50;4.07;;;;;;;45.81;22.45;97098.97;5041149;28;20021;-82
2022/08/18 08:03:22;;;;;;;4.93;4.20;;;;;;;45.63;22.68;97092.41;5049305;28;20504;-82
2022/08/18 08:06:06;;;;;;;5.53;4.22;;;;;;;42.85;24.37;97098.75;5041462;28;20504;-82
2022/08/18 08:08:35;;;;;;;4.68;4.13;;;;;;;41.90;25.22;97088.91;5040256;28;20499;-80
2022/08/18 08:11:19;;;;;;;6.75;4.70;;;;;;;44.19;23.99;97083.84;5045983;28;20033;-82
2022/08/18 08:14:29;;;;;;;7.13;5.05;;;;;;;44.75;23.24;97091.66;5037603;28;20025;-81
2022/08/18 08:17:16;;;;;;;6.22;4.30;;;;;;;44.29;23.18;97082.75;5008091;28;20041;-81
2022/08/18 08:20:07;;;;;;;4.22;3.83;;;;;;;44.09;23.17;97090.56;5038795;28;20040;-82
2022/08/18 08:23:00;;;;;;;5.40;3.95;;;;;;;42.45;24.10;97083.47;5021340;28;20033;-80
2022/08/18 08:25:35;;;;;;;132.57;80.78;;;;;;;43.09;23.88;97083.34;5027453;28;20036;-81
2022/08/18 08:28:06;;;;;;;6.80;5.28;;;;;;;43.32;23.85;97077.78;5041857;28;20492;-82
2022/08/18 08:30:35;;;;;;;7.38;4.00;;;;;;;44.00;23.25;97081.22;5039641;28;20033;-81
2022/08/18 08:33:20;;;;;;;6.53;3.63;;;;;;;45.16;22.09;97086.50;5033977;28;20029;-82
2022/08/18 08:36:01;;;;;;;5.75;3.97;;;;;;;45.49;21.36;97077.63;5035468;28;20165;-82
2022/08/18 08:38:34;;;;;;;5.15;3.85;;;;;;;46.03;21.10;97076.13;5037018;28;20039;-83
2022/08/18 08:41:04;;;;;;;27.90;18.73;;;;;;;46.20;21.05;97065.66;5045037;28;20021;-82
2022/08/18 08:43:33;;;;;;;4.90;4.20;;;;;;;46.77;20.86;97077.47;5014843;28;20036;-82
2022/08/18 08:46:02;;;;;;;4.57;4.13;;;;;;;47.22;20.17;97075.00;5017405;28;20038;-82
2022/08/18 08:48:31;;;;;;;4.18;3.78;;;;;;;44.55;22.00;97056.34;5028789;28;20040;-82
2022/08/18 08:51:09;;;;;;;8.80;5.05;;;;;;;45.23;22.03;97064.25;5018109;28;20029;-81
2022/08/18 08:53:44;;;;;;;4.22;3.85;;;;;;;45.26;21.12;97057.94;5023916;28;20516;-81
2022/08/18 08:56:16;;;;;;;4.25;3.85;;;;;;;45.82;20.89;97052.53;5015560;28;20022;-80
2022/08/18 08:58:45;;;;;;;5.38;3.97;;;;;;;45.17;21.27;97042.97;5019156;28;20045;-80
2022/08/18 09:01:47;;;;;;;6.25;4.57;;;;;;;46.71;20.28;97055.34;5020389;28;20043;-80
2022/08/18 09:04:35;;;;;;;7.35;4.22;;;;;;;47.07;20.25;97057.72;5024938;28;20029;-80
2022/08/18 09:07:31;;;;;;;4.82;4.07;;;;;;;46.51;20.16;97051.28;5026939;28;20053;-81
2022/08/18 09:10:24;;;;;;;4.97;3.45;;;;;;;46.74;20.23;97047.00;5019937;28;20031;-81
2022/08/18 09:13:08;;;;;;;3.85;3.45;;;;;;;45.17;21.38;97031.66;5024967;28;20037;-81
2022/08/18 09:15:39;;;;;;;3.80;3.50;;;;;;;44.47;21.30;97028.91;5031766;28;20037;-81
2022/08/18 09:18:20;;;;;;;3.92;3.50;;;;;;;44.80;21.47;97037.00;5028468;28;20519;-81
2022/08/18 09:20:46;;;;;;;;;;;;;;;44.37;21.59;97034.81;5037591;28;20035;-82
2022/08/18 09:23:27;;;;;;;5.43;3.70;;;;;;;44.99;20.51;97023.47;5046021;28;20015;-81
2022/08/18 09:25:57;;;;;;;5.43;3.33;;;;;;;43.68;21.24;97022.25;5017168;28;20116;-81
2022/08/18 09:28:29;;;;;;;4.72;3.80;;;;;;;43.83;21.12;97018.22;5009603;28;20033;-81
2022/08/18 09:31:00;;;;;;;7.88;4.30;;;;;;;44.95;20.26;97026.13;5033029;28;20035;-81
2022/08/18 09:33:32;;;;;;;11.52;3.55;;;;;;;44.56;20.46;97009.19;5027538;28;20154;-81
2022/08/18 09:36:16;;;;;;;5.15;3.42;;;;;;;45.31;20.49;97010.94;5035298;28;20033;-81
2022/08/18 09:41:57;;;;;;;9.82;4.85;;;;;;;46.60;18.84;97005.94;5027794;28;20102;-81
2022/08/18 09:44:45;;;;;;;9.95;4.03;;;;;;;47.38;18.19;96997.81;5025658;28;20048;-80
2022/08/18 09:47:32;;;;;;;7.60;4.40;;;;;;;47.40;18.50;97006.81;5045614;27;20120;-80
2022/08/18 09:50:04;;;;;;;4.28;3.47;;;;;;;47.40;18.00;96992.63;5026423;28;20066;-81
2022/08/18 09:52:32;;;;;;;5.55;4.05;;;;;;;46.54;17.97;96981.81;5030537;28;20062;-80
2022/08/18 09:54:58;;;;;;;5.20;4.15;;;;;;;44.43;19.50;96979.06;5040393;28;20564;-80
2022/08/18 09:57:29;;;;;;;6.03;4.25;;;;;;;42.79;21.50;96964.88;5029202;28;20108;-81
2022/08/18 10:00:07;;;;;;;7.75;3.60;;;;;;;44.49;20.63;96972.09;5022410;28;20043;-80
2022/08/18 10:02:35;;;;;;;8.30;3.63;;;;;;;43.77;20.70;96966.78;5036125;28;20058;-82
2022/08/18 10:05:16;;;;;;;4.82;3.60;;;;;;;44.71;20.11;96972.88;5034998;28;20039;-80
2022/08/18 10:07:46;;;;;;;4.93;3.67;;;;;;;45.64;19.08;96958.34;5032472;28;20071;-81
2022/08/18 10:10:20;;;;;;;4.40;3.77;;;;;;;45.33;18.72;96949.25;5038274;28;20064;-81
2022/08/18 10:13:18;;;;;;;4.07;3.67;;;;;;;44.78;18.74;96944.16;5038038;28;20070;-81
2022/08/18 10:16:05;;;;;;;3.97;3.58;;;;;;;46.66;18.13;96948.75;5029274;28;20044;-81
2022/08/18 10:18:52;;;;;;;7.90;3.80;;;;;;;45.96;18.88;96952.16;5015610;28;20078;-81
2022/08/18 10:21:21;;;;;;;14.30;4.57;;;;;;;45.90;18.12;96947.88;5024977;28;20090;-81
2022/08/18 10:23:53;;;;;;;5.70;3.40;;;;;;;46.88;18.33;96953.31;5037153;28;20030;-81
2022/08/18 10:26:31;;;;;;;3.83;3.42;;;;;;;46.41;18.04;96946.84;5040257;28;20412;-81
2022/08/18 10:28:58;;;;;;;11.80;4.47;;;;;;;47.86;17.63;96945.00;5045269;28;20041;-81
2022/08/18 10:31:25;;;;;;;10.25;3.55;;;;;;;46.57;18.02;96935.81;5036674;28;20489;-81
2022/08/18 10:34:06;;;;;;;7.18;3.47;;;;;;;46.25;17.31;96935.28;5030954;28;20032;-81
2022/08/18 10:36:36;;;;;;;3.80;3.40;;;;;;;44.66;19.44;96929.84;5041227;28;20506;-80
2022/08/18 10:39:06;;;;;;;4.63;3.83;;;;;;;46.02;18.30;96936.69;5011098;28;20044;-80
2022/08/18 10:41:32;;;;;;;8.40;3.65;;;;;;;46.65;17.68;96932.09;5016388;28;20045;-80
2022/08/18 10:44:00;;;;;;;4.68;3.92;;;;;;;44.42;18.53;96920.97;5038673;28;20464;-80
2022/08/18 10:46:35;;;;;;;3.75;3.17;;;;;;;45.93;17.50;96918.91;5031016;28;20086;-80
2022/08/18 10:49:08;;;;;;;5.05;3.10;;;;;;;46.54;17.63;96923.16;5014750;28;20029;-80
2022/08/18 10:52:20;;;;;;;8.23;4.50;;;;;;;46.74;17.97;96928.03;5021086;28;20116;-79
2022/08/18 10:55:15;;;;;;;4.03;3.17;;;;;;;47.53;16.38;96920.66;5014396;28;20036;-79
2022/08/18 10:58:03;;;;;;;4.32;3.42;;;;;;;48.41;16.52;96923.00;5031990;28;20458;-79
2022/08/18 11:01:04;;;;;;;5.22;3.33;;;;;;;48.48;16.26;96917.56;5040479;28;20123;-80
2022/08/18 11:03:58;;;;;;;5.25;3.40;;;;;;;48.18;16.44;96919.78;5025425;28;20531;-80
2022/08/18 11:06:24;;;;;;;7.70;3.20;;;;;;;47.58;15.64;96898.56;5023336;28;20045;-80
2022/08/18 11:08:56;;;;;;;3.33;3.00;;;;;;;48.09;15.84;96896.31;5013498;28;20038;-80
2022/08/18 11:11:25;;;;;;;3.72;3.05;;;;;;;47.02;15.89;96882.19;5029005;28;20504;-80
2022/08/18 11:13:55;;;;;;;3.60;3.30;;;;;;;45.38;17.53;96889.72;5026217;28;20029;-80
2022/08/18 11:17:01;;;;;;;4.40;3.38;;;;;;;43.05;20.55;96895.56;5018523;28;20036;-80
2022/08/18 11:19:27;;;;;;;5.85;3.60;;;;;;;40.68;22.63;96900.91;5032920;28;20037;-80
2022/08/18 11:21:53;;;;;;;3.80;3.45;;;;;;;39.68;23.64;96889.78;5020931;28;20060;-80
2022/08/18 11:24:22;;;;;;;4.35;3.33;;;;;;;40.92;22.16;96896.03;5019331;28;20055;-80
2022/08/18 11:26:54;;;;;;;13.75;4.15;;;;;;;42.84;21.13;96894.34;5010851;28;20448;-80
2022/08/18 11:29:27;;;;;;;7.88;3.70;;;;;;;43.99;20.22;96899.06;5018735;28;20653;-80
2022/08/18 11:32:22;;;;;;;4.82;2.90;;;;;;;43.12;20.00;96887.50;5035061;28;20044;-81
2022/08/18 11:34:56;;;;;;;4.45;3.45;;;;;;;42.07;20.80;96886.72;5025164;28;20055;-80
2022/08/18 11:37:49;;;;;;;4.00;3.28;;;;;;;40.13;22.39;96879.19;5039964;28;20104;-80
2022/08/18 11:40:17;;;;;;;4.53;3.53;;;;;;;38.75;24.71;96889.97;5040142;28;20505;-80
2022/08/18 11:42:53;;;;;;;7.03;3.97;;;;;;;38.24;25.19;96902.56;5046172;28;20112;-81
2022/08/18 11:45:21;;;;;;;7.60;3.78;;;;;;;37.97;25.82;96891.75;5022401;28;20025;-81
2022/08/18 11:48:30;;;;;;;12.57;3.65;;;;;;;37.80;25.75;96897.66;5023480;28;20021;-80
2022/08/18 11:50:56;;;;;;;10.77;4.00;;;;;;;38.02;26.29;96893.72;5049903;28;20032;-81
2022/08/18 11:53:31;;;;;;;4.55;3.25;;;;;;;40.45;24.26;96904.56;5036238;28;20025;-81
2022/08/18 11:56:24;;;;;;;3.85;3.28;;;;;;;41.77;21.89;96897.75;5037438;28;20033;-81
2022/08/18 11:59:02;;;;;;;5.60;3.20;;;;;;;43.09;20.38;96879.69;5030927;28;20100;-81
2022/08/18 12:01:33;;;;;;;4.55;3.53;;;;;;;42.90;20.84;96881.81;5036572;28;20044;-81
2022/08/18 12:04:08;;;;;;;4.50;3.40;;;;;;;43.94;19.89;96878.59;5019715;28;20377;-78
2022/08/18 12:06:35;;;;;;;7.00;4.10;;;;;;;43.65;19.84;96862.19;5040967;28;20198;-80
2022/08/18 12:09:04;;;;;;;3.75;3.13;;;;;;;43.68;19.82;96870.00;5037465;28;20159;-79
2022/08/18 12:11:53;;;;;;;3.53;2.80;;;;;;;45.97;18.66;96873.75;5017964;28;20108;-80